Time;durP1;ratioP1;P1;durP2;ratioP2;P2;SDS_P1;SDS_P2;PMS_P1;PMS_P2;Temp;Humidity;BMP_temperature;BMP_pressure;BME280_temperature;BME280_humidity;BME280_pressure;Samples;Min_cycle;Max_cycle;Signal;HPM_P1;HPM_P2
2023/12/03 00:00:05;;;;;;;6.22;3.40;;;;;;;25.30;34.67;99007.25;4377086;32;33917;-61
2023/12/03 00:02:33;;;;;;;6.15;3.37;;;;;;;25.28;34.66;99023.09;4375115;32;33824;-61
2023/12/03 00:05:01;;;;;;;7.45;3.50;;;;;;;25.26;34.67;99028.78;4362102;32;33929;-62
2023/12/03 00:07:31;;;;;;;6.62;3.33;;;;;;;25.24;34.71;99019.22;4362195;32;34090;-60
2023/12/03 00:09:59;;;;;;;6.32;3.15;;;;;;;25.23;34.75;99036.66;4348907;32;34766;-62
2023/12/03 00:12:28;;;;;;;7.47;3.47;;;;;;;25.22;34.76;99043.22;4362072;32;33377;-62
2023/12/03 00:14:55;;;;;;;8.45;3.45;;;;;;;25.20;34.78;99043.47;4361822;32;33901;-60
2023/12/03 00:17:23;;;;;;;8.70;3.30;;;;;;;25.18;34.81;99060.12;4360933;32;33607;-60
2023/12/03 00:19:51;;;;;;;7.72;3.37;;;;;;;25.17;34.91;99091.22;4361840;32;34377;-60
2023/12/03 00:22:18;;;;;;;10.70;4.10;;;;;;;25.15;34.93;99074.28;4362069;32;33218;-60
2023/12/03 00:24:46;;;;;;;6.12;3.28;;;;;;;25.13;34.91;99065.53;4361796;32;33760;-58
2023/12/03 00:27:14;;;;;;;8.05;3.20;;;;;;;25.13;34.88;99072.88;4362166;32;33948;-60
2023/12/03 00:29:41;;;;;;;7.60;2.97;;;;;;;25.11;34.88;99097.69;4370408;32;34259;-59
2023/12/03 00:32:09;;;;;;;6.12;3.28;;;;;;;25.09;34.90;99105.34;4376715;32;33483;-60
2023/12/03 00:34:36;;;;;;;6.30;3.42;;;;;;;25.07;34.95;99126.56;4376780;32;34701;-58
2023/12/03 00:37:04;;;;;;;6.22;3.25;;;;;;;25.06;34.96;99126.81;4371951;32;34054;-60
2023/12/03 00:39:32;;;;;;;5.18;3.22;;;;;;;25.04;35.00;99138.00;4361699;32;34184;-60
2023/12/03 00:42:00;;;;;;;5.47;3.20;;;;;;;25.02;35.09;99136.56;4361796;32;33323;-63
2023/12/03 00:44:27;;;;;;;8.48;3.67;;;;;;;25.01;34.49;99134.94;4361765;32;33706;-60
2023/12/03 00:46:55;;;;;;;6.12;3.83;;;;;;;24.98;34.19;99136.25;4361384;32;34985;-61
2023/12/03 00:49:23;;;;;;;9.43;3.70;;;;;;;24.94;34.20;99144.09;4359346;32;34035;-57
2023/12/03 00:51:50;;;;;;;6.90;3.42;;;;;;;24.93;34.36;99152.56;4355065;32;33691;-60
2023/12/03 00:54:18;;;;;;;6.43;3.45;;;;;;;24.92;34.43;99164.56;4359443;32;33817;-59
2023/12/03 00:56:46;;;;;;;6.78;3.35;;;;;;;24.91;34.45;99182.03;4359559;32;34226;-60
2023/12/03 00:59:13;;;;;;;5.32;3.00;;;;;;;24.90;34.49;99181.19;4359655;32;34413;-60
2023/12/03 01:01:41;;;;;;;12.05;3.17;;;;;;;24.90;34.51;99202.19;4359779;32;33157;-60
2023/12/03 01:04:08;;;;;;;7.25;3.62;;;;;;;24.88;34.58;99199.72;4359730;32;33881;-60
2023/12/03 01:06:36;;;;;;;6.05;3.10;;;;;;;24.86;34.60;99201.06;4361655;32;34057;-59
2023/12/03 01:09:04;;;;;;;8.48;3.78;;;;;;;24.85;34.69;99196.66;4361053;32;33926;-61
2023/12/03 01:11:31;;;;;;;6.80;2.75;;;;;;;24.84;34.69;99201.28;4361813;32;33499;-61
2023/12/03 01:14:03;;;;;;;9.00;3.20;;;;;;;24.83;34.74;99210.56;4361781;32;33580;-61
2023/12/03 01:16:32;;;;;;;5.67;3.20;;;;;;;24.82;34.73;99211.62;4361390;32;34694;-60
2023/12/03 01:19:00;;;;;;;6.72;3.28;;;;;;;24.81;34.75;99209.16;4361514;32;34263;-59
2023/12/03 01:21:28;;;;;;;5.70;3.20;;;;;;;24.79;34.80;99220.31;4361281;32;33356;-60
2023/12/03 01:23:56;;;;;;;4.97;2.60;;;;;;;24.78;34.79;99223.28;4361377;32;34574;-60
2023/12/03 01:26:23;;;;;;;6.70;2.95;;;;;;;24.77;34.86;99218.91;4361424;32;33610;-60
2023/12/03 01:28:52;;;;;;;7.47;3.65;;;;;;;24.76;34.89;99209.06;4361322;32;33770;-61
2023/12/03 01:31:20;;;;;;;6.10;3.20;;;;;;;24.75;34.93;99219.16;4361268;32;33646;-60
2023/12/03 01:33:48;;;;;;;6.20;3.22;;;;;;;24.73;34.92;99218.59;4361257;32;34707;-60
2023/12/03 01:36:15;;;;;;;9.02;3.35;;;;;;;24.73;34.95;99217.75;4360894;32;34135;-59
2023/12/03 01:38:43;;;;;;;8.60;3.10;;;;;;;24.71;34.95;99215.25;4361178;32;34851;-60
2023/12/03 01:41:11;;;;;;;6.00;3.00;;;;;;;24.68;34.99;99222.06;4361051;32;33532;-60
2023/12/03 01:43:49;;;;;;;6.45;3.72;;;;;;;24.68;35.04;99218.50;4360822;32;34092;-60
2023/12/03 01:46:16;;;;;;;6.28;3.62;;;;;;;24.67;35.13;99231.31;4360907;32;34943;-60
2023/12/03 01:48:44;;;;;;;7.00;3.15;;;;;;;24.66;35.08;99239.72;4361297;32;33729;-59
2023/12/03 01:51:12;;;;;;;5.62;3.20;;;;;;;24.64;35.09;99250.09;4360841;32;34372;-60
2023/12/03 01:53:40;;;;;;;6.97;3.25;;;;;;;24.64;35.13;99240.00;4361176;32;33617;-60
2023/12/03 01:56:09;;;;;;;5.40;3.10;;;;;;;24.63;35.08;99264.81;4360850;32;34613;-60
2023/12/03 01:58:36;;;;;;;7.57;3.25;;;;;;;24.62;35.20;99252.22;4361032;32;33768;-60
2023/12/03 02:01:05;;;;;;;8.20;3.08;;;;;;;24.61;35.15;99266.94;4360794;32;34150;-61
2023/12/03 02:03:33;;;;;;;8.35;3.75;;;;;;;24.58;35.18;99265.53;4360704;32;34063;-61
2023/12/03 02:06:08;;;;;;;6.78;3.30;;;;;;;24.59;35.22;99259.00;4360713;32;33918;-59
2023/12/03 02:08:36;;;;;;;5.72;2.92;;;;;;;24.57;35.41;99265.78;4360556;32;34250;-60
2023/12/03 02:11:05;;;;;;;6.40;3.10;;;;;;;24.56;35.37;99275.03;4360496;32;33799;-60
2023/12/03 02:13:34;;;;;;;5.20;2.60;;;;;;;24.55;35.40;99279.66;4360626;32;34088;-59
2023/12/03 02:16:01;;;;;;;7.32;3.20;;;;;;;24.54;35.54;99267.09;4361146;32;35006;-60
2023/12/03 02:18:29;;;;;;;10.02;3.30;;;;;;;24.53;35.47;99291.87;4362659;32;34667;-59
2023/12/03 02:20:57;;;;;;;6.35;3.08;;;;;;;24.52;35.59;99292.97;4362903;32;33516;-59
2023/12/03 02:23:28;;;;;;;7.22;3.60;;;;;;;24.51;35.51;99313.94;4362779;32;33986;-60
2023/12/03 02:25:55;;;;;;;5.40;2.80;;;;;;;24.50;35.53;99312.31;4362594;32;34180;-60
2023/12/03 02:28:23;;;;;;;4.53;2.78;;;;;;;24.51;35.60;99332.22;4362692;32;33376;-60
2023/12/03 02:30:50;;;;;;;5.47;2.90;;;;;;;24.48;35.56;99330.81;4362795;32;33489;-60
2023/12/03 02:33:18;;;;;;;5.50;2.70;;;;;;;24.47;35.57;99336.50;4362499;32;33965;-59
2023/12/03 02:35:45;;;;;;;9.07;3.00;;;;;;;24.46;35.63;99337.59;4349428;32;33562;-60
2023/12/03 02:38:13;;;;;;;7.07;2.97;;;;;;;24.46;35.64;99332.13;4337335;32;33621;-60
2023/12/03 02:40:41;;;;;;;7.60;3.40;;;;;;;24.44;35.64;99324.19;4362396;32;33505;-60
2023/12/03 02:43:08;;;;;;;5.97;2.78;;;;;;;24.43;35.77;99330.69;4362658;32;33971;-59
2023/12/03 02:45:36;;;;;;;5.75;2.72;;;;;;;24.41;35.77;99347.31;4362580;32;34801;-60
2023/12/03 02:48:04;;;;;;;5.90;3.20;;;;;;;24.41;35.68;99343.78;4362477;32;34181;-61
2023/12/03 02:50:31;;;;;;;6.35;2.87;;;;;;;24.40;35.70;99356.59;4362639;32;33604;-60
2023/12/03 02:52:59;;;;;;;9.00;2.97;;;;;;;24.38;35.75;99371.50;4362764;32;33983;-60
2023/12/03 02:55:27;;;;;;;6.97;3.40;;;;;;;24.37;35.74;99386.22;4362389;32;33859;-59
2023/12/03 02:57:55;;;;;;;7.32;3.45;;;;;;;24.37;35.85;99410.75;4362436;32;34980;-60
2023/12/03 03:00:23;;;;;;;6.50;2.40;;;;;;;24.35;35.82;99416.44;4362545;32;34139;-61
2023/12/03 03:02:51;;;;;;;6.87;2.80;;;;;;;24.34;35.80;99403.88;4362550;32;33878;-61
2023/12/03 03:05:18;;;;;;;5.50;2.80;;;;;;;24.33;35.90;99415.84;4362409;32;34017;-60
2023/12/03 03:07:45;;;;;;;5.25;2.45;;;;;;;24.34;35.84;99416.66;4362243;32;34014;-61
2023/12/03 03:10:13;;;;;;;9.30;2.80;;;;;;;24.32;35.97;99435.19;4362527;32;33293;-61
2023/12/03 03:12:40;;;;;;;8.93;2.83;;;;;;;24.32;35.93;99433.28;4348798;32;32914;-59
2023/12/03 03:15:08;;;;;;;3.80;2.40;;;;;;;24.31;35.96;99455.34;4362440;32;34037;-60
2023/12/03 03:17:36;;;;;;;8.13;2.83;;;;;;;24.30;35.99;99461.88;4362310;32;33822;-59
2023/12/03 03:20:04;;;;;;;5.45;2.83;;;;;;;24.29;36.02;99466.47;4362467;32;34235;-60
2023/12/03 03:22:32;;;;;;;7.32;2.80;;;;;;;24.28;35.98;99474.91;4362026;32;34046;-60
2023/12/03 03:25:00;;;;;;;4.55;2.65;;;;;;;24.27;36.13;99492.31;4362284;32;34765;-60
2023/12/03 03:27:27;;;;;;;4.75;2.40;;;;;;;24.25;36.06;99483.53;4361936;32;34023;-60
2023/12/03 03:29:55;;;;;;;6.18;3.22;;;;;;;24.26;36.22;99487.94;4362080;32;34175;-60
2023/12/03 03:32:23;;;;;;;9.30;3.03;;;;;;;24.25;36.11;99495.31;4362337;32;33984;-59
2023/12/03 03:34:50;;;;;;;7.05;2.60;;;;;;;24.23;36.15;99497.41;4362256;32;34727;-60
2023/12/03 03:37:18;;;;;;;6.35;2.72;;;;;;;24.23;36.15;99507.50;4362172;32;33955;-60
2023/12/03 03:39:45;;;;;;;7.85;2.72;;;;;;;24.23;36.16;99521.13;4362569;32;34170;-60
2023/12/03 03:42:13;;;;;;;6.55;2.75;;;;;;;24.22;36.22;99516.75;4362473;32;33963;-60
2023/12/03 03:44:40;;;;;;;7.53;3.08;;;;;;;24.20;36.29;99527.87;4362080;32;34132;-60
2023/12/03 03:47:11;;;;;;;6.53;2.50;;;;;;;24.21;36.29;99526.00;4362065;32;34973;-59
2023/12/03 03:49:38;;;;;;;8.18;2.78;;;;;;;24.18;36.29;99530.84;4362380;32;34365;-60
2023/12/03 03:52:06;;;;;;;6.68;2.75;;;;;;;24.18;36.27;99539.03;4362085;32;34627;-59
2023/12/03 03:54:34;;;;;;;5.97;2.75;;;;;;;24.17;36.20;99537.38;4362214;32;34792;-60
2023/12/03 03:57:01;;;;;;;5.80;2.72;;;;;;;24.15;36.29;99542.25;4348590;32;33723;-60
2023/12/03 03:59:29;;;;;;;6.07;2.80;;;;;;;24.16;36.24;99552.09;4362010;32;34270;-60
2023/12/03 04:01:56;;;;;;;6.03;2.58;;;;;;;24.15;36.29;99564.06;4362074;32;33959;-60
2023/12/03 04:04:24;;;;;;;4.95;2.37;;;;;;;24.15;36.33;99565.94;4362129;32;34247;-60
2023/12/03 04:06:52;;;;;;;7.90;2.72;;;;;;;24.13;36.27;99568.91;4348357;32;34026;-60
2023/12/03 04:09:19;;;;;;;6.25;2.60;;;;;;;24.13;36.43;99562.62;4361988;32;33392;-60
2023/12/03 04:11:47;;;;;;;6.65;3.15;;;;;;;24.12;36.39;99577.31;4359886;32;33762;-60
2023/12/03 04:14:15;;;;;;;4.90;2.70;;;;;;;24.10;36.43;99572.09;4361826;32;34890;-60
2023/12/03 04:16:43;;;;;;;7.75;2.95;;;;;;;24.10;36.43;99579.44;4362257;32;33573;-60
2023/12/03 04:19:11;;;;;;;5.10;2.60;;;;;;;24.09;36.44;99586.78;4362003;32;33528;-60
2023/12/03 04:21:39;;;;;;;5.20;2.85;;;;;;;24.08;36.46;99587.84;4361626;32;34577;-59
2023/12/03 04:24:07;;;;;;;5.18;3.00;;;;;;;24.07;36.31;99588.94;4361967;32;33811;-60
2023/12/03 04:26:35;;;;;;;8.77;2.60;;;;;;;24.07;36.32;99591.66;4361877;32;34653;-60
2023/12/03 04:29:02;;;;;;;7.82;2.70;;;;;;;24.06;36.41;99602.78;4361668;32;34306;-60
2023/12/03 04:31:29;;;;;;;4.53;2.55;;;;;;;24.04;36.46;99605.75;4361890;32;33877;-60
2023/12/03 04:33:57;;;;;;;4.40;2.37;;;;;;;24.05;36.48;99612.84;4361912;32;34134;-59
2023/12/03 04:36:26;;;;;;;6.40;2.60;;;;;;;24.03;36.51;99606.81;4361833;32;34169;-59
2023/12/03 04:38:54;;;;;;;6.18;2.35;;;;;;;24.03;36.55;99604.09;4361483;32;33865;-60
2023/12/03 04:41:21;;;;;;;3.85;2.15;;;;;;;24.02;36.56;99607.06;4360591;32;34122;-60
2023/12/03 04:43:49;;;;;;;4.37;2.60;;;;;;;24.02;36.52;99616.06;4360222;32;34088;-59
2023/12/03 04:46:16;;;;;;;4.45;2.15;;;;;;;24.00;36.51;99617.34;4358875;32;33805;-57
2023/12/03 04:48:44;;;;;;;5.05;2.58;;;;;;;24.00;36.53;99626.34;4361771;32;33606;-59
2023/12/03 04:51:14;;;;;;;5.20;2.53;;;;;;;24.01;36.51;99619.00;4361480;32;34109;-58
2023/12/03 04:53:42;;;;;;;4.85;2.25;;;;;;;23.98;36.53;99636.69;4361743;32;33980;-56
2023/12/03 04:56:10;;;;;;;6.93;2.75;;;;;;;23.98;36.50;99633.94;4361400;32;33958;-60
2023/12/03 04:58:37;;;;;;;7.62;3.15;;;;;;;23.98;36.55;99623.03;4361863;32;33141;-59
2023/12/03 05:01:05;;;;;;;4.32;2.22;;;;;;;23.97;36.68;99634.16;4361632;32;33666;-59
2023/12/03 05:03:32;;;;;;;5.25;2.60;;;;;;;23.95;36.70;99637.13;4361402;32;33576;-60
2023/12/03 05:06:00;;;;;;;4.32;2.37;;;;;;;23.94;36.66;99646.38;4361585;32;33948;-58
2023/12/03 05:08:28;;;;;;;7.10;2.45;;;;;;;23.94;36.60;99657.28;4361563;32;33551;-59
2023/12/03 05:10:55;;;;;;;4.15;2.42;;;;;;;23.93;36.63;99659.19;4361386;32;34052;-61
2023/12/03 05:13:23;;;;;;;4.45;2.55;;;;;;;23.93;36.65;99667.34;4361456;32;33677;-59
2023/12/03 05:15:50;;;;;;;4.25;2.20;;;;;;;23.92;36.60;99667.56;4361440;32;34698;-60
2023/12/03 05:18:18;;;;;;;6.47;2.70;;;;;;;23.91;36.65;99668.63;4361145;32;34239;-61
2023/12/03 05:20:46;;;;;;;4.62;2.42;;;;;;;23.90;36.63;99678.72;4361562;32;33975;-61
2023/12/03 05:23:13;;;;;;;5.20;2.40;;;;;;;23.90;36.70;99673.25;4361358;32;34145;-60
2023/12/03 05:25:41;;;;;;;4.35;2.17;;;;;;;23.89;36.74;99677.06;4361092;32;33977;-59
2023/12/03 05:28:08;;;;;;;4.82;2.22;;;;;;;23.89;36.70;99679.78;4361146;32;34500;-61
2023/12/03 05:30:39;;;;;;;9.18;2.70;;;;;;;23.87;36.78;99686.50;4361309;32;34812;-61
2023/12/03 05:33:07;;;;;;;5.22;2.12;;;;;;;23.87;36.79;99694.69;4360980;32;34020;-60
2023/12/03 05:35:34;;;;;;;9.32;2.30;;;;;;;23.87;36.96;99698.25;4361167;32;34517;-62
2023/12/03 05:38:02;;;;;;;5.97;2.62;;;;;;;23.85;37.01;99705.00;4361005;32;33484;-59
2023/12/03 05:40:29;;;;;;;4.78;2.30;;;;;;;23.86;36.95;99706.66;4360931;32;33727;-61
2023/12/03 05:42:57;;;;;;;5.32;2.37;;;;;;;23.86;36.90;99714.81;4361150;32;34539;-60
2023/12/03 05:45:24;;;;;;;3.72;1.95;;;;;;;23.84;37.01;99715.06;4361011;32;33785;-58
2023/12/03 05:47:52;;;;;;;6.78;2.33;;;;;;;23.83;36.98;99728.94;4360855;32;33501;-60
2023/12/03 05:50:20;;;;;;;5.80;2.60;;;;;;;23.83;36.93;99732.47;4360877;32;34965;-59
2023/12/03 05:52:47;;;;;;;4.97;2.35;;;;;;;23.82;36.98;99727.25;4362913;32;34797;-61
2023/12/03 05:55:16;;;;;;;3.58;2.10;;;;;;;23.81;36.93;99734.59;4362816;32;33781;-60
2023/12/03 05:57:43;;;;;;;4.68;2.33;;;;;;;23.81;36.96;99742.75;4362861;32;34173;-61
2023/12/03 06:00:11;;;;;;;6.10;1.98;;;;;;;23.80;36.95;99740.28;4363195;32;33981;-60
2023/12/03 06:02:39;;;;;;;4.47;2.30;;;;;;;23.80;36.96;99743.00;4362717;32;34099;-60
2023/12/03 06:05:07;;;;;;;5.00;2.20;;;;;;;23.80;36.95;99737.56;4363084;32;34134;-61
2023/12/03 06:07:34;;;;;;;5.85;2.20;;;;;;;23.78;36.96;99743.25;4362794;32;33578;-60
2023/12/03 06:10:03;;;;;;;5.03;2.25;;;;;;;23.79;36.94;99746.81;4362725;32;34760;-60
2023/12/03 06:12:30;;;;;;;4.78;2.28;;;;;;;23.78;36.98;99762.31;4362861;32;34488;-60
2023/12/03 06:14:58;;;;;;;8.25;1.80;;;;;;;23.77;36.97;99762.53;4362821;32;33989;-60
2023/12/03 06:17:25;;;;;;;5.03;1.95;;;;;;;23.77;36.91;99773.44;4362578;32;33451;-60
2023/12/03 06:19:53;;;;;;;4.65;2.53;;;;;;;23.76;36.97;99769.03;4363062;32;34065;-59
2023/12/03 06:22:21;;;;;;;4.60;2.47;;;;;;;23.75;37.00;99775.56;4362781;32;35036;-60
2023/12/03 06:24:48;;;;;;;8.02;2.40;;;;;;;23.74;37.04;99776.62;4362609;32;34719;-59
2023/12/03 06:27:16;;;;;;;6.00;2.17;;;;;;;23.74;37.02;99773.91;4362853;32;33130;-59
2023/12/03 06:29:43;;;;;;;5.07;2.08;;;;;;;23.74;37.02;99773.91;4362678;32;33714;-61
2023/12/03 06:32:12;;;;;;;6.75;2.08;;;;;;;23.72;37.03;99789.63;4362521;32;34091;-61
2023/12/03 06:34:39;;;;;;;5.57;2.00;;;;;;;23.71;37.04;99794.25;4362715;32;34645;-60
2023/12/03 06:37:08;;;;;;;6.22;2.50;;;;;;;23.72;37.02;99795.06;4362892;32;33588;-60
2023/12/03 06:39:35;;;;;;;4.45;1.98;;;;;;;23.70;37.04;99802.66;4362394;32;33870;-60
2023/12/03 06:42:03;;;;;;;5.37;2.10;;;;;;;23.70;37.05;99808.09;4362545;32;34897;-60
2023/12/03 06:44:30;;;;;;;5.22;2.00;;;;;;;23.69;37.00;99810.00;4363006;32;34122;-59
2023/12/03 06:47:10;;;;;;;;;;;;;;;23.67;37.01;99804.75;4362945;32;33242;-60
2023/12/03 06:49:38;;;;;;;4.72;2.42;;;;;;;23.79;36.83;99814.91;4362957;32;34442;-60
2023/12/03 06:52:05;;;;;;;6.85;2.97;;;;;;;23.70;36.98;99808.09;4362668;32;34199;-60
2023/12/03 06:54:33;;;;;;;4.37;2.28;;;;;;;23.66;37.06;99815.91;4362564;32;33923;-61
2023/12/03 06:57:00;;;;;;;4.57;2.00;;;;;;;23.64;37.06;99815.28;4362573;32;33384;-59
2023/12/03 06:59:28;;;;;;;4.68;2.00;;;;;;;23.63;37.08;99825.31;4362370;32;34320;-61
2023/12/03 07:01:55;;;;;;;8.98;2.35;;;;;;;23.63;37.06;99822.59;4362379;32;33756;-61
2023/12/03 07:04:23;;;;;;;5.10;2.15;;;;;;;23.62;37.10;99833.72;4361990;32;33940;-61
2023/12/03 07:06:51;;;;;;;5.25;2.25;;;;;;;23.62;37.07;99837.28;4362363;32;34073;-61
2023/12/03 07:09:18;;;;;;;5.78;1.90;;;;;;;23.62;37.01;99852.78;4362340;32;34726;-62
2023/12/03 07:12:07;;;;;;;4.25;2.12;;;;;;;23.62;36.97;99852.78;4362380;32;33819;-60
2023/12/03 07:14:35;;;;;;;4.78;2.12;;;;;;;23.62;37.06;99869.13;4362441;32;34839;-61
2023/12/03 07:17:02;;;;;;;5.75;1.92;;;;;;;23.61;37.05;99872.91;4362641;32;33238;-58
2023/12/03 07:19:30;;;;;;;6.07;2.15;;;;;;;23.61;37.06;99881.91;4362252;32;34102;-60
2023/12/03 07:21:57;;;;;;;4.75;1.98;;;;;;;23.61;37.04;99895.53;4362302;32;33924;-60
2023/12/03 07:24:25;;;;;;;6.22;2.33;;;;;;;23.59;37.02;99900.34;4360433;32;33977;-60
2023/12/03 07:26:53;;;;;;;5.45;2.30;;;;;;;23.59;37.06;99894.91;4361759;32;33556;-61
2023/12/03 07:29:20;;;;;;;3.78;1.92;;;;;;;23.58;37.12;99901.44;4361341;32;33928;-60
2023/12/03 07:31:48;;;;;;;8.15;2.08;;;;;;;23.60;37.17;99909.41;4361466;32;34073;-60
2023/12/03 07:34:15;;;;;;;5.35;2.00;;;;;;;23.58;37.16;99906.03;4361438;32;33767;-59
2023/12/03 07:36:43;;;;;;;3.67;2.37;;;;;;;23.58;36.57;99925.09;4360884;32;32892;-61
2023/12/03 07:39:11;;;;;;;13.70;2.40;;;;;;;23.54;34.28;99930.16;4359520;32;34699;-60
2023/12/03 07:41:39;;;;;;;4.25;2.58;;;;;;;23.52;34.06;99931.47;4361405;32;33871;-60
2023/12/03 07:44:07;;;;;;;3.90;2.08;;;;;;;23.49;34.25;99932.72;4361466;32;33880;-60
2023/12/03 07:46:34;;;;;;;3.33;2.03;;;;;;;23.47;34.41;99950.38;4361159;32;33576;-60
2023/12/03 07:49:03;;;;;;;5.57;2.20;;;;;;;23.45;34.58;99953.28;4361292;32;33148;-60
2023/12/03 07:51:31;;;;;;;4.25;2.37;;;;;;;23.41;34.65;99963.81;4361520;32;34150;-61
2023/12/03 07:53:59;;;;;;;3.67;2.10;;;;;;;23.38;34.68;99968.88;4361082;32;34862;-60
2023/12/03 07:56:37;;;;;;;5.18;2.28;;;;;;;23.35;34.69;99974.75;4361675;32;33654;-60
2023/12/03 07:59:04;;;;;;;4.20;2.03;;;;;;;23.32;34.70;99970.59;4360961;32;34806;-61
2023/12/03 08:01:32;;;;;;;3.35;2.20;;;;;;;23.29;34.72;99965.59;4360712;32;34031;-61
2023/12/03 08:04:00;;;;;;;4.70;2.30;;;;;;;23.27;34.68;99958.69;4362406;32;34644;-62
2023/12/03 08:06:27;;;;;;;4.60;2.30;;;;;;;23.24;34.74;99970.87;4362192;32;33039;-61
2023/12/03 08:08:55;;;;;;;5.37;1.98;;;;;;;23.24;34.71;99970.03;4361401;32;33213;-61
2023/12/03 08:11:23;;;;;;;4.12;2.45;;;;;;;23.19;34.77;99970.69;4361896;32;34022;-61
2023/12/03 08:13:52;;;;;;;4.37;2.17;;;;;;;23.19;34.70;99969.87;4361921;32;34100;-61
2023/12/03 08:16:20;;;;;;;6.57;2.30;;;;;;;23.16;34.71;99969.22;4361863;32;34344;-61
2023/12/03 08:18:48;;;;;;;3.75;2.35;;;;;;;23.15;34.72;99964.03;4359782;32;34157;-61
2023/12/03 08:21:16;;;;;;;5.40;3.40;;;;;;;23.14;34.67;99976.81;4361199;32;33603;-61
2023/12/03 08:23:43;;;;;;;8.00;3.62;;;;;;;23.04;32.17;99983.78;4361096;32;34846;-61
2023/12/03 08:26:11;;;;;;;4.95;2.85;;;;;;;23.03;33.03;99982.09;4360987;32;34259;-61
2023/12/03 08:28:39;;;;;;;4.90;3.00;;;;;;;23.06;33.40;99981.66;4361082;32;35007;-61
2023/12/03 08:31:07;;;;;;;4.80;2.50;;;;;;;23.08;33.60;99996.75;4360995;32;34491;-61
2023/12/03 08:33:35;;;;;;;8.37;2.50;;;;;;;23.17;33.66;99989.97;4360868;32;34426;-63
2023/12/03 08:36:03;;;;;;;6.20;2.50;;;;;;;23.29;33.69;99978.37;4361228;32;34068;-64
2023/12/03 08:38:30;;;;;;;5.32;2.58;;;;;;;23.40;33.73;100000.25;4361175;32;34826;-63
2023/12/03 08:40:58;;;;;;;5.03;2.60;;;;;;;23.53;33.75;99995.75;4360605;32;34971;-63
2023/12/03 08:43:26;;;;;;;5.12;2.47;;;;;;;23.63;33.78;99999.66;4360975;32;33815;-64
2023/12/03 08:45:53;;;;;;;4.43;2.17;;;;;;;23.75;33.82;99996.25;4361279;32;34575;-64
2023/12/03 08:48:21;;;;;;;4.00;2.28;;;;;;;23.85;33.83;99997.38;4360934;32;34136;-63
2023/12/03 08:50:49;;;;;;;3.85;2.20;;;;;;;23.96;33.83;100005.88;4361258;32;34062;-63
2023/12/03 08:53:17;;;;;;;4.50;2.00;;;;;;;24.05;33.78;99996.34;4360971;32;33999;-64
2023/12/03 08:55:45;;;;;;;12.27;2.25;;;;;;;24.12;33.78;99981.59;4360776;32;33032;-63
2023/12/03 08:58:12;;;;;;;4.65;2.40;;;;;;;24.18;33.73;99986.13;4360964;32;35035;-64
2023/12/03 09:00:40;;;;;;;4.70;2.22;;;;;;;24.25;33.78;100007.03;4360531;32;33760;-64
2023/12/03 09:03:08;;;;;;;4.75;2.30;;;;;;;24.30;33.73;100016.22;4360514;32;34088;-64
2023/12/03 09:05:35;;;;;;;5.47;2.40;;;;;;;24.34;33.79;100030.22;4360906;32;34446;-64
2023/12/03 09:08:03;;;;;;;9.95;2.20;;;;;;;24.35;33.82;100027.28;4347034;32;33907;-64
2023/12/03 09:10:31;;;;;;;6.97;2.37;;;;;;;24.38;33.77;100032.28;4360633;32;34154;-63
2023/12/03 09:12:58;;;;;;;5.97;3.45;;;;;;;24.40;33.73;100035.62;4360855;32;33783;-64
2023/12/03 09:15:26;;;;;;;3.50;2.08;;;;;;;24.42;33.72;100036.22;4360758;32;33309;-64
2023/12/03 09:17:53;;;;;;;5.10;2.53;;;;;;;24.43;33.73;100045.25;4360440;32;34124;-64
2023/12/03 09:20:21;;;;;;;7.28;2.20;;;;;;;24.42;33.73;100049.88;4360429;32;33451;-64
2023/12/03 09:22:48;;;;;;;5.72;2.17;;;;;;;24.42;33.76;100041.69;4360562;32;34512;-64
2023/12/03 09:25:16;;;;;;;9.63;2.35;;;;;;;24.42;33.78;100052.59;4360272;32;33174;-64
2023/12/03 09:27:44;;;;;;;7.03;2.70;;;;;;;24.40;33.84;100053.91;4362535;32;33938;-64
2023/12/03 09:30:11;;;;;;;11.65;2.53;;;;;;;24.39;33.94;100055.81;4362375;32;33525;-64
2023/12/03 09:32:39;;;;;;;6.10;2.10;;;;;;;24.40;34.05;100054.72;4361808;32;34892;-63
2023/12/03 09:35:07;;;;;;;9.57;2.28;;;;;;;24.47;34.03;100051.09;4362310;32;33644;-64
2023/12/03 09:37:35;;;;;;;7.37;2.37;;;;;;;24.52;33.98;100060.25;4362271;32;34687;-63
2023/12/03 09:40:03;;;;;;;8.00;2.60;;;;;;;24.57;34.15;100052.22;4361741;32;34663;-64
2023/12/03 09:42:33;;;;;;;5.15;2.20;;;;;;;24.63;34.20;100064.13;4362406;32;33972;-65
2023/12/03 09:45:03;;;;;;;9.30;2.17;;;;;;;24.68;34.20;100053.38;4349085;32;33950;-64
2023/12/03 09:47:34;;;;;;;9.80;2.45;;;;;;;24.74;34.16;100048.88;4362031;32;34141;-64
2023/12/03 09:50:02;;;;;;;4.75;1.70;;;;;;;24.78;34.10;100044.63;4362067;32;34152;-64
2023/12/03 09:52:31;;;;;;;7.75;2.40;;;;;;;24.88;34.01;100044.91;4362420;32;34711;-63
2023/12/03 09:54:59;;;;;;;8.27;2.85;;;;;;;24.93;33.88;100047.78;4348414;32;34304;-64
2023/12/03 09:57:29;;;;;;;7.97;2.33;;;;;;;25.02;33.76;100068.25;4362201;32;34050;-64
2023/12/03 09:59:57;;;;;;;5.37;1.85;;;;;;;25.11;33.73;100076.97;4348839;32;33910;-64
2023/12/03 10:02:28;;;;;;;13.55;2.90;;;;;;;25.17;33.76;100067.84;4361763;32;33853;-64
2023/12/03 10:04:56;;;;;;;9.15;2.50;;;;;;;25.25;33.69;100061.25;4349104;32;33607;-64
2023/12/03 10:07:28;;;;;;;14.15;3.15;;;;;;;25.28;33.60;100064.34;4362381;32;33661;-64
2023/12/03 10:10:00;;;;;;;8.25;2.08;;;;;;;25.31;33.49;100055.66;4358822;32;34103;-63
2023/12/03 10:12:32;;;;;;;7.30;2.20;;;;;;;25.36;33.38;100064.00;4367664;32;34664;-64
2023/12/03 10:15:00;;;;;;;5.85;2.33;;;;;;;25.41;33.40;100066.03;4363330;32;33149;-63
2023/12/03 10:17:28;;;;;;;7.18;2.12;;;;;;;25.49;33.27;100079.34;4376432;32;34863;-64
2023/12/03 10:20:21;;;;;;;6.60;2.53;;;;;;;25.53;33.26;100069.62;4360934;32;33554;-64
2023/12/03 10:22:49;;;;;;;5.82;2.22;;;;;;;25.60;33.22;100077.72;4359467;32;34251;-64
2023/12/03 10:25:27;;;;;;;12.20;2.30;;;;;;;25.60;33.25;100081.31;4361461;32;33469;-64
2023/12/03 10:27:56;;;;;;;4.72;1.80;;;;;;;25.63;33.18;100069.06;4370728;32;34629;-64
2023/12/03 10:30:24;;;;;;;6.37;2.53;;;;;;;25.62;33.17;100076.44;4362087;32;34199;-64
2023/12/03 10:32:51;;;;;;;8.98;2.37;;;;;;;25.63;33.14;100077.25;4361531;32;33746;-64
2023/12/03 10:35:20;;;;;;;5.70;2.00;;;;;;;25.63;33.12;100080.00;4361409;32;34172;-64
2023/12/03 10:37:49;;;;;;;10.43;2.47;;;;;;;25.62;33.16;100081.88;4360369;32;34203;-64
2023/12/03 10:40:19;;;;;;;8.18;2.30;;;;;;;25.62;33.15;100070.13;4360864;32;34661;-64
2023/12/03 10:42:47;;;;;;;6.20;2.08;;;;;;;25.60;33.19;100064.06;4361749;32;35134;-63
2023/12/03 10:45:15;;;;;;;4.75;1.65;;;;;;;25.59;33.16;100056.94;4361698;32;33752;-63
2023/12/03 10:47:43;;;;;;;6.60;1.87;;;;;;;25.59;33.08;100048.72;4361142;32;33702;-64
2023/12/03 10:50:12;;;;;;;6.97;2.12;;;;;;;25.56;33.02;100041.84;4361762;32;34103;-64
2023/12/03 10:52:40;;;;;;;5.65;1.92;;;;;;;25.52;33.05;100046.12;4361702;32;33959;-65
2023/12/03 10:55:08;;;;;;;4.62;2.12;;;;;;;25.51;33.01;100051.78;4361321;32;33168;-64
2023/12/03 10:57:53;;;;;;;8.45;2.15;;;;;;;25.47;33.00;100056.91;4361707;32;33837;-65
2023/12/03 11:00:21;;;;;;;4.68;2.12;;;;;;;25.45;33.00;100061.75;4361457;32;34025;-63
2023/12/03 11:03:01;;;;;;;5.97;2.12;;;;;;;25.40;32.99;100078.84;4335867;32;34482;-64
2023/12/03 11:05:31;;;;;;;6.78;1.90;;;;;;;25.37;33.04;100089.44;4368101;32;34163;-64
2023/12/03 11:08:02;;;;;;;6.18;2.10;;;;;;;25.32;33.05;100090.12;4347944;32;34901;-64
2023/12/03 11:10:30;;;;;;;5.32;2.17;;;;;;;25.29;33.10;100076.94;4361334;32;33781;-64
2023/12/03 11:12:57;;;;;;;4.20;1.67;;;;;;;25.27;33.15;100089.13;4336112;32;33375;-64
2023/12/03 11:15:25;;;;;;;5.75;2.45;;;;;;;25.22;33.03;100089.84;4361417;32;33355;-64
2023/12/03 11:17:53;;;;;;;7.97;2.30;;;;;;;25.18;32.81;100088.63;4361242;32;34396;-64
2023/12/03 11:20:27;;;;;;;5.78;2.08;;;;;;;25.14;32.42;100087.44;4335766;32;34065;-65
2023/12/03 11:23:01;;;;;;;4.18;1.98;;;;;;;25.10;32.26;100087.06;4333323;33;33690;-64
2023/12/03 11:25:33;;;;;;;4.78;2.10;;;;;;;25.07;32.08;100089.38;4346308;33;33374;-64
2023/12/03 11:28:01;;;;;;;4.82;2.12;;;;;;;25.01;31.89;100093.06;4346752;33;33806;-64
2023/12/03 11:30:39;;;;;;;7.03;2.08;;;;;;;24.96;31.48;100101.94;4346613;33;33756;-65
2023/12/03 11:33:13;;;;;;;3.42;2.08;;;;;;;24.92;31.38;100112.47;4346180;33;34296;-64
2023/12/03 11:35:42;;;;;;;5.65;2.17;;;;;;;24.87;31.33;100114.22;4346433;33;33518;-61